Weather History For Prescott AZ
This page updates 5 minutes after midnight. GMT -7
Station: KPRC0 Rows: 26
| Year | Date | Temp (°F) | Tmin (°F) | Tmax (°F) | RH% | Prcp | Snow | Wind | Gust | Pres | Sun | Cloud |
|---|---|---|---|---|---|---|---|---|---|---|---|---|
| 2000 | 2000-05-05 | 66.0 | 50.0 | 81.0 | 23 | — | — | 17.0 | — | 29.82 | — | 0 |
| 2001 | 2001-05-05 | 57.2 | 37.0 | 71.1 | 29 | — | — | 12.8 | — | 29.89 | — | 1 |
| 2002 | 2002-05-05 | 60.1 | 42.8 | 75.2 | 20 | — | — | 12.1 | — | 29.91 | — | 0 |
| 2003 | 2003-05-05 | 54.0 | 37.4 | 68.0 | 41 | — | — | 11.2 | — | 29.78 | — | 2 |
| 2004 | 2004-05-05 | 68.9 | 50.0 | 80.6 | 17 | — | — | 16.1 | — | 29.90 | — | 0 |
| 2005 | 2005-05-05 | 61.7 | 50.0 | 72.0 | 32 | 0.0 | — | 18.3 | — | 29.80 | — | 0 |
| 2006 | 2006-05-05 | 56.7 | 43.0 | 69.1 | 34 | 0.0 | — | 12.1 | — | 29.82 | — | 2 |
| 2007 | 2007-05-05 | 46.2 | 37.0 | 52.0 | 42 | — | — | 15.8 | — | 29.68 | — | 4 |
| 2008 | 2008-05-05 | 59.5 | 43.0 | 72.0 | 24 | 0.0 | — | 17.3 | — | 29.77 | — | 1 |
| 2009 | 2009-05-05 | 66.0 | 53.1 | 77.0 | 27 | — | — | 14.8 | — | 29.82 | — | 0 |
| 2010 | 2010-05-05 | 63.0 | 43.0 | 77.0 | 23 | 0.0 | — | 18.4 | — | 29.81 | — | 0 |
| 2011 | 2011-05-05 | 65.3 | 45.0 | 81.0 | 20 | 0.0 | — | 9.3 | — | 29.96 | — | 0 |
| 2012 | 2012-05-05 | 63.0 | 46.0 | 75.9 | 22 | 0.0 | — | 14.4 | — | 29.86 | — | 0 |
| 2013 | 2013-05-05 | 62.1 | 55.0 | 70.0 | 20 | 0.0 | — | 16.8 | — | 29.76 | — | 1 |
| 2014 | 2014-05-05 | 65.7 | 48.9 | 77.0 | 17 | 0.0 | — | 17.8 | — | 29.82 | — | 0 |
| 2015 | 2015-05-05 | 57.0 | 50.0 | 66.9 | 58 | — | — | 15.9 | — | 29.82 | — | — |
| 2016 | 2016-05-05 | 65.7 | 52.0 | 75.9 | 21 | 0.0 | — | 19.5 | — | 29.75 | — | 0 |
| 2017 | 2017-05-05 | 71.1 | 51.1 | 87.1 | 24 | 0.0 | — | 12.3 | — | 29.79 | — | 0 |
| 2018 | 2018-05-05 | 66.2 | 45.0 | 82.9 | 25 | 0.0 | — | 9.7 | — | 30.01 | — | 0 |
| 2019 | 2019-05-05 | 63.5 | 46.9 | 77.0 | 23 | 0.0 | — | 15.4 | — | 29.72 | — | 0 |
| 2020 | 2020-05-05 | 67.3 | 46.0 | 82.9 | 24 | 0.0 | — | 10.2 | — | 29.94 | — | 0 |
| 2021 | 2021-05-05 | 66.0 | 46.0 | 82.0 | 22 | 0.0 | — | 9.6 | — | 29.95 | — | 0 |
| 2022 | 2022-05-05 | 62.4 | 42.1 | 80.1 | 25 | 0.0 | — | 10.4 | — | 29.93 | — | 0 |
| 2023 | 2023-05-05 | 51.6 | 41.0 | 62.1 | 44 | 0.0 | — | 14.4 | — | 29.87 | — | 2 |
| 2024 | 2024-05-05 | 57.6 | 45.0 | 64.9 | 34 | 0.0 | — | 29.1 | — | 29.65 | — | 1 |
| 2025 | 2025-05-05 | 48.6 | 43.0 | 55.0 | 72 | 5.4 | — | 12.9 | — | 29.69 | — | 6 |